Hof-Plauen Airport EDQM

Flugplatz Daten

Name: Hof-Plauen Airport

Ident: EDQM

Lat: 50,28861237

Long: 11,85638905

Platzhöhe: 1959 ft

IataCode: HOQ

City: Hof

Metar

2022/08/14 06:20
EDQM 140620Z AUTO 08006KT 030V110 9999 // NCD 18/15 Q1014

Taf

Gewünschte Webcam nicht vorhanden? Dann fügen Sie eine hinzu. Sie wird dann so schnell wie möglich freigeschaltet
Url: Title: